Time;durP1;ratioP1;P1;durP2;ratioP2;P2;SDS_P1;SDS_P2;PMS_P1;PMS_P2;Temp;Humidity;BMP_temperature;BMP_pressure;BME280_temperature;BME280_humidity;BME280_pressure;Samples;Min_cycle;Max_cycle;Signal;HPM_P1;HPM_P2
2022/09/07 00:00:33;;;;;;;6.97;2.50;;;14.80;72.40;;;;;;4998946;28;20178;-87
2022/09/07 00:02:59;;;;;;;7.83;2.30;;;14.80;72.40;;;;;;4998958;28;20224;-88
2022/09/07 00:05:24;;;;;;;8.27;2.57;;;14.70;72.50;;;;;;4998985;28;20232;-88
2022/09/07 00:07:50;;;;;;;8.73;2.90;;;14.70;72.70;;;;;;4999294;28;20275;-87
2022/09/07 00:10:16;;;;;;;5.10;2.60;;;14.70;72.70;;;;;;4999062;28;20320;-89
2022/09/07 00:12:41;;;;;;;5.20;2.73;;;14.70;72.80;;;;;;4998968;28;20683;-88
2022/09/07 00:15:10;;;;;;;6.60;2.60;;;14.70;72.90;;;;;;5016366;28;20192;-89
2022/09/07 00:17:36;;;;;;;6.73;2.70;;;14.70;72.90;;;;;;5017068;28;20644;-88
2022/09/07 00:20:03;;;;;;;7.30;2.67;;;14.70;72.90;;;;;;5017033;28;20223;-88
2022/09/07 00:22:29;;;;;;;3.63;2.23;;;14.70;73.00;;;;;;4999209;28;20182;-88
2022/09/07 00:24:54;;;;;;;6.77;2.37;;;14.70;72.90;;;;;;5016938;28;20176;-88
2022/09/07 00:27:20;;;;;;;3.77;2.70;;;14.70;72.90;;;;;;4998462;28;20271;-88
2022/09/07 00:29:45;;;;;;;7.03;2.70;;;14.70;72.80;;;;;;5016394;28;20663;-90
2022/09/07 00:32:11;;;;;;;6.23;2.70;;;14.80;72.80;;;;;;4999508;28;20173;-88
2022/09/07 00:34:36;;;;;;;3.40;2.20;;;14.70;72.80;;;;;;5017299;28;20182;-87
2022/09/07 00:37:02;;;;;;;6.93;2.90;;;14.70;72.80;;;;;;4999062;28;20292;-87
2022/09/07 00:39:28;;;;;;;2.90;2.07;;;14.80;72.70;;;;;;5000129;28;20173;-88
2022/09/07 00:41:53;;;;;;;16.67;2.70;;;14.80;72.60;;;;;;5016420;28;20178;-89
2022/09/07 00:44:38;;;;;;;4.40;2.40;;;14.80;72.50;;;;;;5016300;28;20177;-88
2022/09/07 00:47:08;;;;;;;7.37;2.80;;;14.90;72.40;;;;;;4998966;28;20259;-88
2022/09/07 00:49:34;;;;;;;4.87;2.20;;;14.80;72.30;;;;;;4998048;28;20177;-89
2022/09/07 00:52:04;;;;;;;5.03;2.07;;;14.90;72.30;;;;;;5016393;28;20727;-88
2022/09/07 00:54:35;;;;;;;8.37;2.50;;;14.90;72.10;;;;;;4998706;28;20216;-88
2022/09/07 00:57:01;;;;;;;4.47;2.10;;;15.00;72.00;;;;;;4999544;28;20286;-88
2022/09/07 00:59:32;;;;;;;4.80;1.90;;;15.00;71.90;;;;;;4999182;28;20173;-88
2022/09/07 01:01:59;;;;;;;6.20;2.00;;;15.10;71.80;;;;;;5016621;28;20532;-88
2022/09/07 01:04:25;;;;;;;7.17;2.00;;;15.00;71.70;;;;;;4998359;28;20181;-88
2022/09/07 01:06:53;;;;;;;3.23;2.30;;;15.00;71.70;;;;;;4998441;28;20255;-87
2022/09/07 01:09:21;;;;;;;2.53;1.90;;;15.00;71.70;;;;;;5016412;28;20227;-88
2022/09/07 01:11:49;;;;;;;7.63;2.60;;;15.00;71.80;;;;;;5016498;28;20181;-88
2022/09/07 01:14:18;;;;;;;3.07;2.00;;;15.00;71.80;;;;;;4998719;28;20227;-88
2022/09/07 01:17:08;;;;;;;8.90;2.50;;;15.10;71.70;;;;;;4999022;28;20620;-88
2022/09/07 01:20:10;;;;;;;7.90;2.20;;;15.10;71.40;;;;;;4999338;28;20183;-87
2022/09/07 01:23:00;;;;;;;4.90;1.90;;;15.10;71.50;;;;;;4999510;28;20184;-87
2022/09/07 01:25:57;;;;;;;5.37;2.17;;;15.10;71.50;;;;;;4998952;28;20243;-87
2022/09/07 01:28:29;;;;;;;5.43;2.20;;;15.10;71.40;;;;;;4999925;28;20608;-88
2022/09/07 01:31:23;;;;;;;7.33;2.10;;;15.10;71.40;;;;;;5001369;28;20173;-88
2022/09/07 01:34:06;;;;;;;10.97;2.30;;;15.10;71.40;;;;;;4999986;28;20209;-87
2022/09/07 01:36:48;;;;;;;5.83;2.63;;;15.20;71.30;;;;;;4999035;28;20247;-88
2022/09/07 01:39:16;;;;;;;2.33;2.07;;;15.20;71.20;;;;;;5016408;28;20158;-88
2022/09/07 01:42:02;;;;;;;3.20;2.70;;;15.20;71.00;;;;;;4997731;28;20174;-88
2022/09/07 01:44:50;;;;;;;8.53;2.27;;;15.20;70.80;;;;;;4997736;28;20176;-89
2022/09/07 01:47:44;;;;;;;4.80;2.60;;;15.20;70.90;;;;;;4998202;28;20666;-88
2022/09/07 01:50:27;;;;;;;4.97;2.60;;;15.20;70.70;;;;;;4998128;28;20178;-89
2022/09/07 01:52:57;;;;;;;3.87;2.73;;;15.20;70.70;;;;;;4997508;28;20619;-88
2022/09/07 01:55:41;;;;;;;6.23;2.77;;;15.20;70.60;;;;;;4997240;28;20201;-88
2022/09/07 01:58:07;;;;;;;6.13;2.60;;;15.20;70.70;;;;;;5015490;28;20212;-88
2022/09/07 02:00:34;;;;;;;3.67;2.40;;;15.20;70.90;;;;;;5015850;28;20181;-88
2022/09/07 02:03:08;;;;;;;4.87;2.37;;;15.20;70.80;;;;;;4998508;28;20185;-87
2022/09/07 02:05:44;;;;;;;4.87;2.33;;;15.20;70.80;;;;;;4998476;28;20203;-88
2022/09/07 02:08:26;;;;;;;4.80;2.27;;;15.30;70.50;;;;;;5015229;28;20177;-88
2022/09/07 02:11:01;;;;;;;4.43;2.50;;;15.30;70.50;;;;;;4997876;28;20169;-88
2022/09/07 02:13:33;;;;;;;5.20;2.63;;;15.30;70.50;;;;;;4997462;28;20200;-88
2022/09/07 02:16:17;;;;;;;4.97;2.47;;;15.30;70.40;;;;;;5014878;28;20200;-88
2022/09/07 02:18:46;;;;;;;9.13;2.67;;;15.30;70.40;;;;;;5014947;28;20201;-88
2022/09/07 02:21:16;;;;;;;3.00;2.50;;;15.30;70.40;;;;;;4997212;28;20184;-88
2022/09/07 02:23:56;;;;;;;7.73;2.43;;;15.30;70.50;;;;;;4997334;28;20212;-88
2022/09/07 02:26:24;;;;;;;7.63;2.20;;;15.30;70.40;;;;;;5014456;28;20219;-88
2022/09/07 02:28:50;;;;;;;10.50;2.77;;;15.30;70.30;;;;;;4997651;28;20181;-89
2022/09/07 02:31:15;;;;;;;6.87;2.13;;;15.30;70.40;;;;;;4996631;28;20241;-88
2022/09/07 02:33:41;;;;;;;3.57;2.43;;;15.30;70.50;;;;;;4996418;28;20308;-88
2022/09/07 02:36:08;;;;;;;2.63;2.43;;;15.30;70.60;;;;;;5014033;28;20193;-88
2022/09/07 02:38:34;;;;;;;9.60;2.33;;;15.30;70.40;;;;;;4996594;28;20182;-88
2022/09/07 02:41:01;;;;;;;5.23;2.10;;;15.30;70.50;;;;;;4996612;28;20239;-88
2022/09/07 02:43:29;;;;;;;5.47;2.50;;;15.30;70.70;;;;;;4996217;28;20223;-89
2022/09/07 02:46:10;;;;;;;9.80;2.93;;;15.30;70.80;;;;;;4996366;28;20212;-88
2022/09/07 02:49:10;;;;;;;7.13;2.97;;;15.20;70.90;;;;;;4996275;28;20185;-88
2022/09/07 02:51:36;;;;;;;4.23;2.37;;;15.20;70.80;;;;;;5014552;28;20165;-90
2022/09/07 02:54:14;;;;;;;9.40;2.53;;;15.20;70.70;;;;;;4997110;28;20223;-89
2022/09/07 02:56:59;;;;;;;3.40;2.50;;;15.20;70.70;;;;;;5015496;28;20229;-88
2022/09/07 02:59:48;;;;;;;7.63;3.00;;;15.20;70.70;;;;;;4996510;28;20329;-88
2022/09/07 03:02:41;;;;;;;4.30;2.63;;;15.20;70.70;;;;;;4996487;28;20192;-88
2022/09/07 03:05:35;;;;;;;2.67;2.33;;;15.20;70.80;;;;;;4996428;28;20185;-87
2022/09/07 03:08:12;;;;;;;8.77;3.00;;;15.20;70.80;;;;;;5013928;28;20189;-88
2022/09/07 03:10:39;;;;;;;4.27;2.40;;;15.20;70.80;;;;;;4996177;28;20170;-88
2022/09/07 03:13:05;;;;;;;7.50;2.40;;;15.20;70.70;;;;;;4996927;28;20201;-87
2022/09/07 03:15:30;;;;;;;10.17;2.87;;;15.20;70.80;;;;;;5000134;28;20615;-88
2022/09/07 03:17:56;;;;;;;10.17;2.93;;;15.10;70.90;;;;;;5000111;28;20201;-89
2022/09/07 03:20:22;;;;;;;3.50;2.70;;;15.00;71.10;;;;;;5017745;28;20176;-88
2022/09/07 03:22:50;;;;;;;10.10;2.70;;;15.10;71.00;;;;;;5000059;28;20185;-88
2022/09/07 03:25:17;;;;;;;5.17;2.80;;;15.00;71.00;;;;;;5000432;28;20185;-88
2022/09/07 03:27:42;;;;;;;6.90;2.63;;;15.00;71.20;;;;;;5000572;28;20304;-87
2022/09/07 03:30:10;;;;;;;6.80;2.70;;;15.00;71.20;;;;;;5017287;28;20185;-88
2022/09/07 03:32:37;;;;;;;5.00;2.50;;;14.90;71.30;;;;;;5017249;28;20212;-88
2022/09/07 03:35:05;;;;;;;4.40;2.63;;;14.90;71.30;;;;;;5017227;28;20182;-88
2022/09/07 03:37:31;;;;;;;6.33;2.40;;;15.00;71.40;;;;;;5017774;28;20656;-88
2022/09/07 03:39:57;;;;;;;4.57;2.90;;;14.90;71.50;;;;;;5000271;28;20240;-88
2022/09/07 03:42:23;;;;;;;6.23;3.00;;;15.00;71.40;;;;;;4999744;28;20643;-90
2022/09/07 03:44:48;;;;;;;6.80;2.67;;;15.00;71.30;;;;;;5000522;28;20196;-88
2022/09/07 03:47:15;;;;;;;6.00;2.50;;;15.00;71.40;;;;;;5000517;28;20208;-88
2022/09/07 03:49:41;;;;;;;7.60;2.93;;;14.90;71.50;;;;;;5017926;28;20184;-88
2022/09/07 03:52:06;;;;;;;6.53;2.83;;;14.90;71.50;;;;;;5018011;28;20165;-88
2022/09/07 03:54:32;;;;;;;4.77;3.07;;;14.90;71.60;;;;;;4999740;28;20240;-88
2022/09/07 03:56:59;;;;;;;14.27;3.20;;;14.90;71.60;;;;;;5000150;28;20637;-88
2022/09/07 03:59:24;;;;;;;8.30;3.07;;;14.80;71.70;;;;;;4999804;28;20213;-88
2022/09/07 04:01:50;;;;;;;6.37;2.87;;;14.90;71.60;;;;;;5017089;28;20174;-88
2022/09/07 04:04:16;;;;;;;8.43;2.97;;;14.90;71.60;;;;;;4999644;28;20185;-88
2022/09/07 04:06:42;;;;;;;5.47;3.40;;;14.90;71.50;;;;;;5017051;28;20204;-89
2022/09/07 04:09:11;;;;;;;11.30;2.97;;;14.90;71.50;;;;;;4999460;28;20181;-88
2022/09/07 04:11:37;;;;;;;6.10;2.83;;;14.90;71.60;;;;;;5017190;28;20173;-88
2022/09/07 04:14:03;;;;;;;3.43;2.87;;;14.90;71.50;;;;;;4999830;28;20224;-88
2022/09/07 04:16:28;;;;;;;4.67;2.87;;;15.00;71.40;;;;;;5017663;28;20193;-88
2022/09/07 04:18:54;;;;;;;4.20;3.00;;;15.00;71.30;;;;;;4999927;28;20556;-88
2022/09/07 04:21:21;;;;;;;7.20;3.90;;;15.00;71.20;;;;;;4999693;28;20192;-88
2022/09/07 04:23:47;;;;;;;5.80;3.20;;;15.00;71.10;;;;;;4999337;28;20212;-88
2022/09/07 04:26:15;;;;;;;4.63;3.37;;;15.00;71.10;;;;;;4998525;28;20324;-88
2022/09/07 04:28:41;;;;;;;8.03;3.80;;;15.00;71.10;;;;;;5000291;28;20173;-88
2022/09/07 04:31:07;;;;;;;5.93;3.20;;;15.10;70.70;;;;;;5016634;28;20173;-88
2022/09/07 04:33:33;;;;;;;6.20;3.27;;;15.10;70.70;;;;;;5016371;28;20620;-89
2022/09/07 04:36:02;;;;;;;5.73;3.07;;;15.20;70.80;;;;;;5000016;28;20288;-88
2022/09/07 04:38:28;;;;;;;4.87;3.03;;;15.20;70.70;;;;;;4999593;28;20175;-88
2022/09/07 04:41:08;;;;;;;6.03;2.97;;;15.10;71.70;;;;;;5000490;28;20173;-88
2022/09/07 04:43:34;;;;;;;6.23;3.07;;;15.10;71.90;;;;;;5001661;28;20174;-89
2022/09/07 04:46:20;;;;;;;4.77;3.00;;;15.10;73.00;;;;;;5000903;28;20201;-88
2022/09/07 04:48:54;;;;;;;5.27;3.13;;;15.20;73.70;;;;;;4999413;28;20237;-89
2022/09/07 04:51:21;;;;;;;13.30;3.33;;;15.30;73.60;;;;;;4998395;28;20252;-88
2022/09/07 04:53:48;;;;;;;11.97;3.23;;;15.40;73.50;;;;;;4998319;28;20197;-88
2022/09/07 04:56:15;;;;;;;8.10;3.10;;;15.40;73.30;;;;;;5016266;28;20212;-87
2022/09/07 04:58:41;;;;;;;8.03;3.50;;;15.40;73.30;;;;;;4998219;28;20200;-88
2022/09/07 05:01:07;;;;;;;9.07;3.77;;;15.40;73.40;;;;;;4998421;28;20177;-88
2022/09/07 05:03:36;;;;;;;9.27;3.70;;;15.30;73.40;;;;;;4998968;28;20204;-89
2022/09/07 05:06:03;;;;;;;6.07;3.70;;;15.30;73.70;;;;;;4998222;28;20210;-90
2022/09/07 05:08:29;;;;;;;8.77;3.53;;;15.40;73.80;;;;;;4998704;28;20295;-88
2022/09/07 05:10:56;;;;;;;4.23;3.53;;;15.40;74.70;;;;;;4998751;28;20192;-89
2022/09/07 05:13:22;;;;;;;8.03;3.83;;;15.40;75.00;;;;;;4998374;28;20201;-88
2022/09/07 05:15:48;;;;;;;7.50;4.00;;;15.50;75.00;;;;;;4998480;28;20272;-88
2022/09/07 05:18:14;;;;;;;7.93;3.90;;;15.40;74.90;;;;;;5015660;28;20180;-88
2022/09/07 05:20:40;;;;;;;7.47;4.00;;;15.50;75.00;;;;;;5016112;28;20224;-88
2022/09/07 05:23:06;;;;;;;6.75;3.67;;;15.50;74.90;;;;;;4998203;28;20656;-87
2022/09/07 05:25:32;;;;;;;5.65;4.07;;;15.50;74.80;;;;;;5015563;28;20236;-88
2022/09/07 05:27:57;;;;;;;6.70;3.90;;;15.50;75.00;;;;;;4998208;28;20202;-88
2022/09/07 05:30:23;;;;;;;11.03;4.20;;;15.50;75.00;;;;;;4997810;28;20707;-88
2022/09/07 05:32:50;;;;;;;11.13;3.92;;;15.50;74.90;;;;;;4997792;28;20291;-89
2022/09/07 05:35:17;;;;;;;10.95;3.95;;;15.50;75.00;;;;;;4997554;28;20593;-89
2022/09/07 05:37:48;;;;;;;6.13;3.73;;;15.50;75.20;;;;;;5015181;28;20169;-89
2022/09/07 05:40:14;;;;;;;7.18;3.85;;;15.50;75.10;;;;;;4998385;28;20538;-88
2022/09/07 05:42:40;;;;;;;7.00;4.03;;;15.40;75.10;;;;;;4997852;28;20173;-89
2022/09/07 05:45:06;;;;;;;5.82;3.78;;;15.50;75.10;;;;;;4997739;28;20177;-88
2022/09/07 05:47:31;;;;;;;12.18;3.53;;;15.50;75.10;;;;;;5015267;28;20204;-89
2022/09/07 05:49:57;;;;;;;8.25;3.80;;;15.50;75.20;;;;;;4997125;28;20181;-88
2022/09/07 05:52:22;;;;;;;7.20;3.67;;;15.50;75.10;;;;;;4997274;28;20651;-88
2022/09/07 05:54:48;;;;;;;5.53;3.75;;;15.40;75.30;;;;;;4997229;28;20247;-88
2022/09/07 05:57:14;;;;;;;5.75;3.50;;;15.40;75.30;;;;;;5014690;28;20206;-88
2022/09/07 05:59:39;;;;;;;5.93;3.88;;;15.40;75.30;;;;;;4997587;28;20177;-88
2022/09/07 06:02:05;;;;;;;9.95;4.05;;;15.40;75.30;;;;;;5014362;28;20184;-88
2022/09/07 06:04:31;;;;;;;4.60;3.83;;;15.50;75.30;;;;;;5014420;28;20563;-88
2022/09/07 06:06:57;;;;;;;12.68;3.78;;;15.50;75.30;;;;;;4996852;28;20220;-86
2022/09/07 06:09:22;;;;;;;9.35;3.45;;;15.50;75.20;;;;;;4996758;28;20181;-89
2022/09/07 06:11:48;;;;;;;5.68;3.17;;;15.50;75.00;;;;;;4996477;28;20177;-88
2022/09/07 06:14:14;;;;;;;5.65;3.90;;;15.50;75.10;;;;;;4996464;28;20204;-88
2022/09/07 06:16:39;;;;;;;7.30;5.13;;;15.50;75.20;;;;;;4997129;28;20220;-89
2022/09/07 06:19:07;;;;;;;10.55;3.42;;;15.50;75.20;;;;;;5015510;28;20205;-90
2022/09/07 06:21:35;;;;;;;5.22;3.78;;;15.60;75.20;;;;;;4997272;28;20182;-90
2022/09/07 06:24:02;;;;;;;11.02;3.80;;;15.70;75.10;;;;;;4997945;28;20213;-90
2022/09/07 06:26:28;;;;;;;6.95;3.75;;;15.70;75.20;;;;;;4997328;28;20216;-90
2022/09/07 06:28:54;;;;;;;8.18;3.97;;;15.70;75.20;;;;;;4998204;28;20185;-89
2022/09/07 06:31:22;;;;;;;11.27;3.90;;;15.70;75.10;;;;;;5016504;28;20228;-89
2022/09/07 06:33:48;;;;;;;6.20;3.58;;;15.70;75.10;;;;;;4998735;28;20225;-89
2022/09/07 06:36:19;;;;;;;9.25;4.35;;;15.70;75.10;;;;;;4998389;28;20193;-88
2022/09/07 06:38:46;;;;;;;6.68;3.47;;;15.70;75.20;;;;;;4998191;28;20208;-89
2022/09/07 06:41:14;;;;;;;10.40;3.58;;;15.80;75.10;;;;;;4998072;28;20176;-88
2022/09/07 06:43:40;;;;;;;6.97;3.85;;;15.80;75.20;;;;;;4998214;28;20181;-89
2022/09/07 06:46:06;;;;;;;10.43;4.70;;;15.80;75.40;;;;;;5015707;28;20192;-88
2022/09/07 06:48:32;;;;;;;6.82;3.83;;;15.90;75.50;;;;;;4999639;28;20173;-89
2022/09/07 06:51:19;;;;;;;5.65;4.00;;;15.90;75.70;;;;;;5002969;28;20181;-89
2022/09/07 06:53:46;;;;;;;9.63;3.97;;;15.80;75.70;;;;;;5003260;28;20200;-87
2022/09/07 06:56:15;;;;;;;8.43;4.28;;;15.80;76.40;;;;;;5018766;28;20197;-88
2022/09/07 06:58:41;;;;;;;9.13;4.55;;;15.80;76.90;;;;;;5020333;28;20710;-89
2022/09/07 07:01:12;;;;;;;8.40;4.00;;;15.80;77.00;;;;;;5002465;28;20177;-88
2022/09/07 07:03:38;;;;;;;8.43;4.72;;;15.90;76.40;;;;;;5001549;28;20177;-89
2022/09/07 07:06:04;;;;;;;7.32;5.05;;;15.90;76.70;;;;;;5001534;28;20193;-87
2022/09/07 07:08:30;;;;;;;6.97;5.13;;;16.00;77.20;;;;;;5020288;28;20173;-87
2022/09/07 07:11:04;;;;;;;8.63;4.55;;;15.90;77.60;;;;;;5003101;28;20177;-88
2022/09/07 07:13:29;;;;;;;11.90;5.47;;;16.00;77.90;;;;;;5004461;28;20197;-91
2022/09/07 07:16:13;;;;;;;11.68;5.47;;;15.90;78.30;;;;;;5003638;28;20201;-88
2022/09/07 07:18:39;;;;;;;8.80;6.57;;;16.00;78.90;;;;;;5020846;28;20172;-86
2022/09/07 07:21:08;;;;;;;8.95;6.80;;;15.90;79.80;;;;;;5002100;28;20178;-89
2022/09/07 07:23:34;;;;;;;10.60;7.63;;;15.80;80.40;;;;;;5019125;28;20181;-89
2022/09/07 07:26:04;;;;;;;11.07;7.57;;;15.80;81.10;;;;;;5001055;28;20209;-90
2022/09/07 07:28:31;;;;;;;10.07;7.82;;;15.80;81.50;;;;;;5001992;28;20181;-89
2022/09/07 07:30:58;;;;;;;10.68;6.75;;;15.80;82.20;;;;;;5002201;28;20187;-89
2022/09/07 07:33:27;;;;;;;13.55;6.93;;;15.80;82.60;;;;;;5002028;28;20201;-90
2022/09/07 07:35:53;;;;;;;11.68;6.75;;;15.80;83.20;;;;;;5002073;28;20232;-89
2022/09/07 07:38:19;;;;;;;10.80;8.10;;;15.70;83.50;;;;;;5002577;28;20169;-89
2022/09/07 07:40:51;;;;;;;11.88;8.00;;;15.70;83.80;;;;;;5001715;28;20177;-89
2022/09/07 07:43:16;;;;;;;11.68;8.00;;;15.60;84.20;;;;;;5000841;28;20182;-90
2022/09/07 07:45:48;;;;;;;11.10;7.22;;;15.50;84.80;;;;;;5001035;28;20208;-90
2022/09/07 07:48:13;;;;;;;9.05;7.18;;;15.40;85.30;;;;;;5001133;28;20181;-91
2022/09/07 07:50:39;;;;;;;11.32;7.25;;;15.40;85.40;;;;;;5002831;28;20181;-90
2022/09/07 07:53:04;;;;;;;13.88;7.75;;;15.30;86.00;;;;;;5004662;28;20200;-90
2022/09/07 07:55:31;;;;;;;8.30;7.40;;;15.20;86.30;;;;;;5006727;28;20229;-90
2022/09/07 07:57:56;;;;;;;13.03;7.90;;;15.10;86.60;;;;;;5004474;28;20173;-88
2022/09/07 08:00:22;;;;;;;14.17;8.47;;;15.00;87.10;;;;;;5006520;28;20208;-89
2022/09/07 08:02:48;;;;;;;14.07;8.60;;;14.90;87.50;;;;;;5020286;28;20173;-89
2022/09/07 08:05:15;;;;;;;15.17;8.90;;;15.00;87.90;;;;;;5002684;28;20597;-89
2022/09/07 08:07:41;;;;;;;13.67;9.03;;;15.00;88.20;;;;;;5002874;28;20189;-87
2022/09/07 08:10:09;;;;;;;14.40;9.13;;;14.90;88.40;;;;;;5000608;28;20181;-89
2022/09/07 08:12:35;;;;;;;15.63;9.47;;;14.90;88.60;;;;;;5001617;28;20670;-88
2022/09/07 08:15:00;;;;;;;12.37;9.40;;;14.80;88.80;;;;;;5001997;28;20277;-90
2022/09/07 08:17:26;;;;;;;12.47;8.63;;;14.80;89.00;;;;;;5003653;28;20197;-88
2022/09/07 08:19:54;;;;;;;13.10;9.43;;;14.80;89.10;;;;;;5020910;28;20189;-89
2022/09/07 08:22:19;;;;;;;16.27;9.93;;;14.80;89.10;;;;;;5003796;28;20235;-89
2022/09/07 08:24:45;;;;;;;14.70;9.87;;;14.80;89.40;;;;;;5003093;28;20181;-89
2022/09/07 08:27:10;;;;;;;13.20;10.00;;;14.80;89.50;;;;;;5002517;28;20351;-91
2022/09/07 08:29:36;;;;;;;15.53;10.50;;;14.80;89.50;;;;;;5002296;28;20181;-89
2022/09/07 08:32:05;;;;;;;15.67;9.50;;;14.80;89.60;;;;;;5000934;28;20172;-87
2022/09/07 08:34:31;;;;;;;11.20;10.00;;;14.80;89.70;;;;;;5021112;28;20202;-87
2022/09/07 08:36:57;;;;;;;14.60;9.80;;;14.80;89.70;;;;;;5019958;28;20194;-86
2022/09/07 08:39:22;;;;;;;15.00;9.90;;;14.80;89.70;;;;;;5006207;28;20181;-90
2022/09/07 08:42:17;;;;;;;12.13;9.77;;;14.80;89.60;;;;;;5023910;28;20185;-89
2022/09/07 08:44:56;;;;;;;14.27;10.50;;;14.80;89.50;;;;;;5005138;28;20199;-89
2022/09/07 08:47:47;;;;;;;12.60;10.07;;;14.80;89.50;;;;;;5007168;28;20251;-88
2022/09/07 08:50:44;;;;;;;14.27;8.97;;;14.80;89.40;;;;;;5022806;28;20233;-89
2022/09/07 08:53:15;;;;;;;11.20;8.13;;;14.70;89.40;;;;;;5003545;28;20200;-89
2022/09/07 08:55:48;;;;;;;12.03;9.20;;;14.70;89.50;;;;;;5005204;28;20204;-88
2022/09/07 08:58:28;;;;;;;15.23;9.37;;;14.60;89.70;;;;;;5023540;28;20178;-88
2022/09/07 09:00:53;;;;;;;11.47;9.07;;;14.50;89.70;;;;;;5005736;28;20558;-89
2022/09/07 09:03:32;;;;;;;16.00;9.07;;;14.50;89.80;;;;;;5007016;28;20177;-89
2022/09/07 09:06:01;;;;;;;10.77;8.93;;;14.60;89.80;;;;;;5006654;28;20227;-89
2022/09/07 09:08:35;;;;;;;12.30;8.67;;;14.60;89.70;;;;;;5007554;28;20189;-87
2022/09/07 09:11:23;;;;;;;11.50;8.07;;;14.60;89.70;;;;;;5022608;28;20624;-90
2022/09/07 09:14:28;;;;;;;12.57;8.50;;;14.50;89.60;;;;;;5002628;28;20201;-87
2022/09/07 09:17:02;;;;;;;8.87;7.97;;;14.60;89.60;;;;;;5004118;28;20209;-88
2022/09/07 09:19:40;;;;;;;13.57;8.67;;;14.70;89.60;;;;;;5001466;28;20173;-88
2022/09/07 09:22:13;;;;;;;12.53;7.80;;;14.70;89.50;;;;;;4997941;28;20172;-88
2022/09/07 09:24:45;;;;;;;10.87;8.63;;;14.70;89.50;;;;;;4998786;28;20634;-87
2022/09/07 09:27:11;;;;;;;15.63;9.00;;;14.70;89.50;;;;;;4998544;28;20683;-89
2022/09/07 09:29:36;;;;;;;15.43;8.70;;;14.80;89.60;;;;;;5003782;28;20192;-88
2022/09/07 09:32:40;;;;;;;9.13;8.10;;;14.90;89.70;;;;;;5002880;28;20212;-88
2022/09/07 09:35:13;;;;;;;8.97;7.67;;;15.00;89.40;;;;;;5002860;28;20185;-87
2022/09/07 09:37:41;;;;;;;10.07;7.90;;;15.30;89.40;;;;;;5019926;28;20211;-87
2022/09/07 09:40:24;;;;;;;8.70;7.73;;;15.50;89.20;;;;;;5021029;28;20256;-87
2022/09/07 09:43:17;;;;;;;9.50;7.50;;;15.50;88.50;;;;;;5001561;28;20169;-87
2022/09/07 09:45:45;;;;;;;9.47;7.17;;;15.60;88.30;;;;;;5003655;28;20291;-88
2022/09/07 09:48:19;;;;;;;12.13;7.17;;;15.50;87.60;;;;;;5002622;28;20224;-87
2022/09/07 09:50:54;;;;;;;8.80;7.10;;;15.60;87.50;;;;;;5021095;28;20161;-87
2022/09/07 09:53:28;;;;;;;14.07;6.43;;;15.60;86.60;;;;;;5019700;28;20275;-86
2022/09/07 09:55:54;;;;;;;10.07;6.68;;;15.70;86.50;;;;;;5020494;28;20196;-87
2022/09/07 09:58:46;;;;;;;9.43;7.18;;;15.80;86.00;;;;;;5002674;28;20227;-86
2022/09/07 10:01:22;;;;;;;11.50;6.10;;;15.90;86.00;;;;;;4997798;28;20217;-86
2022/09/07 10:03:48;;;;;;;11.83;6.87;;;16.00;85.80;;;;;;5000698;28;20545;-88
2022/09/07 10:06:16;;;;;;;9.27;6.75;;;16.20;86.30;;;;;;5016952;28;20209;-86
2022/09/07 10:08:56;;;;;;;10.15;6.93;;;16.40;86.00;;;;;;4998782;28;20192;-88
2022/09/07 10:11:51;;;;;;;10.23;6.95;;;16.70;85.50;;;;;;4997612;28;20259;-87
2022/09/07 10:14:32;;;;;;;9.48;7.07;;;17.00;85.60;;;;;;4997931;28;20194;-88
2022/09/07 10:16:58;;;;;;;12.23;7.15;;;17.30;85.40;;;;;;5015282;28;20189;-88
2022/09/07 10:19:34;;;;;;;12.02;6.85;;;17.50;85.40;;;;;;5014915;28;20220;-87
2022/09/07 10:22:19;;;;;;;8.30;6.53;;;17.60;84.30;;;;;;4997034;28;20177;-87
2022/09/07 10:24:45;;;;;;;8.70;6.40;;;17.50;82.80;;;;;;5014413;28;20166;-87
2022/09/07 10:27:34;;;;;;;12.15;7.30;;;17.50;82.70;;;;;;4996904;28;20245;-88
2022/09/07 10:30:01;;;;;;;11.85;6.78;;;17.70;82.90;;;;;;4996715;28;20660;-88
2022/09/07 10:32:58;;;;;;;8.68;7.00;;;17.80;82.40;;;;;;4996522;28;20185;-89
2022/09/07 10:35:34;;;;;;;9.45;7.03;;;17.80;82.20;;;;;;4996353;28;20623;-87
2022/09/07 10:38:21;;;;;;;14.15;7.18;;;17.80;81.90;;;;;;4997959;28;20226;-87
2022/09/07 10:41:03;;;;;;;8.75;7.57;;;17.80;82.20;;;;;;4998812;28;20227;-88
2022/09/07 10:43:49;;;;;;;7.93;7.13;;;18.00;82.90;;;;;;5016214;28;20240;-88
2022/09/07 10:46:22;;;;;;;10.10;6.75;;;18.10;82.10;;;;;;5018211;28;20196;-88
2022/09/07 10:48:54;;;;;;;10.45;7.75;;;18.20;82.10;;;;;;4999709;28;20216;-88
2022/09/07 10:51:50;;;;;;;11.68;7.38;;;18.10;81.10;;;;;;5016371;28;20227;-89
2022/09/07 10:54:39;;;;;;;11.30;7.13;;;18.20;81.50;;;;;;4996974;28;20193;-88
2022/09/07 10:57:33;;;;;;;9.95;7.65;;;18.40;81.80;;;;;;4998706;28;20193;-89
2022/09/07 11:00:11;;;;;;;8.98;7.40;;;18.50;81.10;;;;;;4998875;28;20694;-90
2022/09/07 11:02:55;;;;;;;14.23;8.15;;;18.80;81.40;;;;;;5016270;28;20173;-89
2022/09/07 11:05:42;;;;;;;9.93;7.60;;;18.80;80.30;;;;;;4998267;28;20547;-89
2022/09/07 11:08:34;;;;;;;13.93;7.75;;;19.00;79.80;;;;;;5015777;28;20161;-89
2022/09/07 11:11:20;;;;;;;8.23;7.05;;;18.90;78.40;;;;;;4997465;28;20174;-89
2022/09/07 11:13:50;;;;;;;10.27;7.35;;;19.00;78.90;;;;;;4996611;28;20197;-89
2022/09/07 11:16:27;;;;;;;10.27;7.57;;;19.10;78.80;;;;;;4997972;28;20193;-89
2022/09/07 11:18:59;;;;;;;11.15;7.88;;;19.10;79.10;;;;;;4998145;28;20161;-90
2022/09/07 11:21:35;;;;;;;11.20;7.20;;;19.20;78.40;;;;;;4996189;28;20169;-88
2022/09/07 11:24:29;;;;;;;11.05;6.95;;;19.20;78.40;;;;;;4996092;28;20165;-89
2022/09/07 11:26:59;;;;;;;12.15;7.47;;;19.30;78.20;;;;;;4996163;28;20309;-90
2022/09/07 11:29:36;;;;;;;9.02;7.20;;;19.30;77.60;;;;;;4996015;28;20173;-89
2022/09/07 11:32:21;;;;;;;11.55;6.75;;;19.40;78.20;;;;;;4996200;28;20204;-86
2022/09/07 11:34:55;;;;;;;9.00;6.43;;;19.50;77.90;;;;;;4997735;28;20229;-89
2022/09/07 11:37:45;;;;;;;13.95;7.10;;;19.70;77.60;;;;;;4999562;28;20194;-88
2022/09/07 11:40:23;;;;;;;8.90;6.88;;;19.70;76.60;;;;;;4999751;28;20236;-88
2022/09/07 11:43:12;;;;;;;9.52;6.22;;;19.70;76.80;;;;;;4999769;28;20176;-88
2022/09/07 11:45:49;;;;;;;9.13;6.68;;;19.80;76.60;;;;;;5000999;28;20202;-88
2022/09/07 11:48:33;;;;;;;10.15;8.07;;;20.10;76.40;;;;;;5001619;28;20165;-89
2022/09/07 11:51:04;;;;;;;11.23;6.80;;;20.20;75.30;;;;;;5000639;28;20172;-89
2022/09/07 11:53:40;;;;;;;10.60;6.88;;;20.50;76.30;;;;;;5000634;28;20201;-89
2022/09/07 11:56:31;;;;;;;8.93;6.75;;;20.60;75.20;;;;;;5000245;28;20204;-89
2022/09/07 11:59:11;;;;;;;9.60;6.40;;;20.60;74.80;;;;;;4999882;28;20165;-86
2022/09/07 12:01:50;;;;;;;7.70;6.47;;;20.70;74.10;;;;;;5016998;28;20177;-89
2022/09/07 12:04:47;;;;;;;10.35;6.50;;;20.80;73.50;;;;;;4999611;28;20169;-88
2022/09/07 12:07:38;;;;;;;7.65;6.30;;;21.20;75.10;;;;;;4999767;28;20250;-88
2022/09/07 12:10:17;;;;;;;9.23;6.50;;;21.20;72.50;;;;;;5018189;28;20173;-88
2022/09/07 12:13:22;;;;;;;12.27;6.85;;;21.30;72.60;;;;;;4999633;28;20205;-90
2022/09/07 12:16:05;;;;;;;9.88;5.75;;;21.60;72.70;;;;;;4997382;28;20259;-89
2022/09/07 12:18:49;;;;;;;9.38;6.65;;;21.70;71.50;;;;;;4999282;28;20166;-89
2022/09/07 12:21:30;;;;;;;8.85;5.57;;;21.70;71.70;;;;;;5017145;28;20212;-89
2022/09/07 12:23:56;;;;;;;12.43;6.80;;;21.50;70.80;;;;;;4998941;28;20584;-88
2022/09/07 12:26:34;;;;;;;6.93;5.70;;;21.50;71.50;;;;;;5016150;28;20223;-88
2022/09/07 12:28:59;;;;;;;8.98;5.78;;;21.70;71.00;;;;;;4998600;28;20230;-87
2022/09/07 12:31:52;;;;;;;10.65;5.88;;;21.90;70.30;;;;;;4998447;28;20189;-88
2022/09/07 12:34:33;;;;;;;8.20;5.70;;;22.10;69.20;;;;;;5012936;28;20209;-88
2022/09/07 12:37:27;;;;;;;6.30;5.07;;;22.30;69.30;;;;;;5015882;28;20194;-87
2022/09/07 12:40:33;;;;;;;8.38;5.90;;;22.60;68.50;;;;;;4998098;28;20177;-88
2022/09/07 12:43:14;;;;;;;9.60;5.85;;;22.70;67.40;;;;;;4998331;28;20656;-90
2022/09/07 12:45:40;;;;;;;7.55;5.75;;;23.10;67.80;;;;;;5014628;28;20193;-89
2022/09/07 12:48:14;;;;;;;7.15;5.47;;;23.10;66.50;;;;;;5015873;28;20169;-89
2022/09/07 12:51:05;;;;;;;13.40;4.97;;;23.00;66.10;;;;;;5015410;28;20183;-87
2022/09/07 12:54:07;;;;;;;6.93;5.28;;;23.20;67.30;;;;;;5015219;28;20190;-88
2022/09/07 12:57:00;;;;;;;8.32;5.70;;;23.50;66.20;;;;;;4997788;28;20690;-91
2022/09/07 12:59:50;;;;;;;6.13;5.43;;;23.40;65.00;;;;;;4997803;28;20165;-90
2022/09/07 13:02:51;;;;;;;8.77;6.13;;;23.60;66.10;;;;;;5015687;28;20497;-89
2022/09/07 13:05:39;;;;;;;8.90;5.25;;;23.70;64.70;;;;;;5015604;28;20171;-90
2022/09/07 13:08:21;;;;;;;8.30;6.07;;;23.80;64.50;;;;;;4999736;28;20577;-88
2022/09/07 13:10:47;;;;;;;8.50;6.13;;;23.90;63.70;;;;;;4997935;28;20628;-89
2022/09/07 13:13:24;;;;;;;7.00;6.25;;;24.00;62.50;;;;;;5015425;28;20227;-88